sensor_id;sensor_type;location;lat;lon;timestamp;P1;durP1;ratioP1;P2;durP2;ratioP2
82000;SDS011;71510;50.558;7.258;2024-01-15T00:00:59;13.68;;;7.47;;
82000;SDS011;71510;50.558;7.258;2024-01-15T00:03:26;15.20;;;7.80;;
82000;SDS011;71510;50.558;7.258;2024-01-15T00:05:54;11.63;;;7.55;;
82000;SDS011;71510;50.558;7.258;2024-01-15T00:08:21;12.10;;;7.37;;
82000;SDS011;71510;50.558;7.258;2024-01-15T00:10:48;12.93;;;7.20;;
82000;SDS011;71510;50.558;7.258;2024-01-15T00:13:16;11.93;;;7.25;;
82000;SDS011;71510;50.558;7.258;2024-01-15T00:15:43;15.05;;;8.50;;
82000;SDS011;71510;50.558;7.258;2024-01-15T00:18:10;14.18;;;7.00;;
82000;SDS011;71510;50.558;7.258;2024-01-15T00:20:38;10.40;;;7.00;;
82000;SDS011;71510;50.558;7.258;2024-01-15T00:23:05;12.00;;;7.03;;
82000;SDS011;71510;50.558;7.258;2024-01-15T00:25:32;14.23;;;7.55;;
82000;SDS011;71510;50.558;7.258;2024-01-15T00:27:59;12.45;;;7.42;;
82000;SDS011;71510;50.558;7.258;2024-01-15T00:30:27;14.00;;;6.87;;
82000;SDS011;71510;50.558;7.258;2024-01-15T00:32:54;13.15;;;7.10;;
82000;SDS011;71510;50.558;7.258;2024-01-15T00:35:21;13.55;;;7.35;;
82000;SDS011;71510;50.558;7.258;2024-01-15T00:37:49;14.68;;;7.37;;
82000;SDS011;71510;50.558;7.258;2024-01-15T00:40:16;14.03;;;8.03;;
82000;SDS011;71510;50.558;7.258;2024-01-15T00:42:43;13.20;;;7.85;;
82000;SDS011;71510;50.558;7.258;2024-01-15T00:45:11;13.78;;;7.37;;
82000;SDS011;71510;50.558;7.258;2024-01-15T00:47:38;13.10;;;7.17;;
82000;SDS011;71510;50.558;7.258;2024-01-15T00:50:05;15.25;;;8.50;;
82000;SDS011;71510;50.558;7.258;2024-01-15T00:52:33;16.67;;;7.17;;
82000;SDS011;71510;50.558;7.258;2024-01-15T00:55:00;15.45;;;8.88;;
82000;SDS011;71510;50.558;7.258;2024-01-15T00:57:27;14.98;;;7.10;;
82000;SDS011;71510;50.558;7.258;2024-01-15T00:59:55;16.30;;;8.23;;
82000;SDS011;71510;50.558;7.258;2024-01-15T01:02:22;14.18;;;8.23;;
82000;SDS011;71510;50.558;7.258;2024-01-15T01:04:49;14.93;;;8.73;;
82000;SDS011;71510;50.558;7.258;2024-01-15T01:07:17;16.02;;;8.70;;
82000;SDS011;71510;50.558;7.258;2024-01-15T01:09:45;17.55;;;9.80;;
82000;SDS011;71510;50.558;7.258;2024-01-15T01:12:14;17.23;;;9.23;;
82000;SDS011;71510;50.558;7.258;2024-01-15T01:14:41;18.70;;;11.35;;
82000;SDS011;71510;50.558;7.258;2024-01-15T01:17:08;21.52;;;10.55;;
82000;SDS011;71510;50.558;7.258;2024-01-15T01:19:36;18.95;;;8.93;;
82000;SDS011;71510;50.558;7.258;2024-01-15T01:22:03;19.65;;;9.73;;
82000;SDS011;71510;50.558;7.258;2024-01-15T01:24:31;18.95;;;10.82;;
82000;SDS011;71510;50.558;7.258;2024-01-15T01:26:58;17.73;;;9.28;;
82000;SDS011;71510;50.558;7.258;2024-01-15T01:29:25;21.62;;;9.38;;
82000;SDS011;71510;50.558;7.258;2024-01-15T01:31:53;17.15;;;9.38;;
82000;SDS011;71510;50.558;7.258;2024-01-15T01:34:20;14.45;;;8.65;;
82000;SDS011;71510;50.558;7.258;2024-01-15T01:36:48;19.42;;;9.75;;
82000;SDS011;71510;50.558;7.258;2024-01-15T01:39:15;17.65;;;9.03;;
82000;SDS011;71510;50.558;7.258;2024-01-15T01:41:43;15.55;;;8.60;;
82000;SDS011;71510;50.558;7.258;2024-01-15T01:44:10;17.35;;;9.58;;
82000;SDS011;71510;50.558;7.258;2024-01-15T01:46:37;16.70;;;9.23;;
82000;SDS011;71510;50.558;7.258;2024-01-15T01:49:07;15.83;;;8.25;;
82000;SDS011;71510;50.558;7.258;2024-01-15T01:51:35;14.58;;;7.92;;
82000;SDS011;71510;50.558;7.258;2024-01-15T01:54:05;17.12;;;9.13;;
82000;SDS011;71510;50.558;7.258;2024-01-15T01:56:34;18.67;;;9.30;;
82000;SDS011;71510;50.558;7.258;2024-01-15T01:59:02;17.15;;;9.13;;
82000;SDS011;71510;50.558;7.258;2024-01-15T02:01:29;17.35;;;8.90;;
82000;SDS011;71510;50.558;7.258;2024-01-15T02:03:57;18.85;;;10.65;;
82000;SDS011;71510;50.558;7.258;2024-01-15T02:06:24;15.05;;;9.30;;
82000;SDS011;71510;50.558;7.258;2024-01-15T02:08:52;16.95;;;9.25;;
82000;SDS011;71510;50.558;7.258;2024-01-15T02:11:19;19.75;;;10.35;;
82000;SDS011;71510;50.558;7.258;2024-01-15T02:13:46;18.87;;;9.43;;
82000;SDS011;71510;50.558;7.258;2024-01-15T02:16:14;18.77;;;9.13;;
82000;SDS011;71510;50.558;7.258;2024-01-15T02:18:42;16.93;;;8.33;;
82000;SDS011;71510;50.558;7.258;2024-01-15T02:21:09;23.55;;;9.90;;
82000;SDS011;71510;50.558;7.258;2024-01-15T02:23:37;19.23;;;9.80;;
82000;SDS011;71510;50.558;7.258;2024-01-15T02:26:05;18.15;;;10.03;;
82000;SDS011;71510;50.558;7.258;2024-01-15T02:28:32;20.80;;;10.70;;
82000;SDS011;71510;50.558;7.258;2024-01-15T02:30:59;20.08;;;10.15;;
82000;SDS011;71510;50.558;7.258;2024-01-15T02:33:27;19.37;;;10.78;;
82000;SDS011;71510;50.558;7.258;2024-01-15T02:35:54;18.85;;;10.08;;
82000;SDS011;71510;50.558;7.258;2024-01-15T02:38:21;16.85;;;9.18;;
82000;SDS011;71510;50.558;7.258;2024-01-15T02:40:49;18.70;;;9.85;;
82000;SDS011;71510;50.558;7.258;2024-01-15T02:43:16;18.23;;;9.28;;
82000;SDS011;71510;50.558;7.258;2024-01-15T02:45:45;19.27;;;10.25;;
82000;SDS011;71510;50.558;7.258;2024-01-15T02:48:13;22.22;;;11.30;;
82000;SDS011;71510;50.558;7.258;2024-01-15T02:50:40;18.92;;;9.83;;
82000;SDS011;71510;50.558;7.258;2024-01-15T02:53:07;18.80;;;11.00;;
82000;SDS011;71510;50.558;7.258;2024-01-15T02:55:35;20.77;;;10.32;;
82000;SDS011;71510;50.558;7.258;2024-01-15T02:58:03;19.90;;;10.55;;
82000;SDS011;71510;50.558;7.258;2024-01-15T03:00:30;19.95;;;11.35;;
82000;SDS011;71510;50.558;7.258;2024-01-15T03:02:58;23.18;;;10.70;;
82000;SDS011;71510;50.558;7.258;2024-01-15T03:05:25;23.77;;;10.98;;
82000;SDS011;71510;50.558;7.258;2024-01-15T03:07:52;22.73;;;11.85;;
82000;SDS011;71510;50.558;7.258;2024-01-15T03:10:19;24.67;;;11.28;;
82000;SDS011;71510;50.558;7.258;2024-01-15T03:12:47;20.15;;;9.93;;
82000;SDS011;71510;50.558;7.258;2024-01-15T03:15:14;21.33;;;11.18;;
82000;SDS011;71510;50.558;7.258;2024-01-15T03:17:41;22.80;;;11.85;;
82000;SDS011;71510;50.558;7.258;2024-01-15T03:20:09;19.42;;;10.55;;
82000;SDS011;71510;50.558;7.258;2024-01-15T03:22:36;21.10;;;11.80;;
82000;SDS011;71510;50.558;7.258;2024-01-15T03:25:04;17.95;;;9.83;;
82000;SDS011;71510;50.558;7.258;2024-01-15T03:27:31;18.20;;;10.43;;
82000;SDS011;71510;50.558;7.258;2024-01-15T03:29:58;23.12;;;12.35;;
82000;SDS011;71510;50.558;7.258;2024-01-15T03:32:26;18.17;;;10.98;;
82000;SDS011;71510;50.558;7.258;2024-01-15T03:34:53;20.32;;;10.95;;
82000;SDS011;71510;50.558;7.258;2024-01-15T03:37:20;17.85;;;10.45;;
82000;SDS011;71510;50.558;7.258;2024-01-15T03:39:48;20.62;;;12.15;;
82000;SDS011;71510;50.558;7.258;2024-01-15T03:42:15;21.87;;;11.35;;
82000;SDS011;71510;50.558;7.258;2024-01-15T03:44:42;19.80;;;10.82;;
82000;SDS011;71510;50.558;7.258;2024-01-15T03:47:10;17.02;;;9.83;;
82000;SDS011;71510;50.558;7.258;2024-01-15T03:49:37;17.23;;;9.00;;
82000;SDS011;71510;50.558;7.258;2024-01-15T03:52:04;20.08;;;10.55;;
82000;SDS011;71510;50.558;7.258;2024-01-15T03:54:32;20.12;;;11.30;;
82000;SDS011;71510;50.558;7.258;2024-01-15T03:56:59;20.75;;;11.57;;
82000;SDS011;71510;50.558;7.258;2024-01-15T03:59:26;18.52;;;11.03;;
82000;SDS011;71510;50.558;7.258;2024-01-15T04:01:54;18.87;;;10.18;;
82000;SDS011;71510;50.558;7.258;2024-01-15T04:04:21;18.87;;;9.80;;
82000;SDS011;71510;50.558;7.258;2024-01-15T04:06:48;21.45;;;10.93;;
82000;SDS011;71510;50.558;7.258;2024-01-15T04:09:16;16.93;;;10.08;;
82000;SDS011;71510;50.558;7.258;2024-01-15T04:11:43;17.87;;;9.55;;
82000;SDS011;71510;50.558;7.258;2024-01-15T04:14:10;16.82;;;10.65;;
82000;SDS011;71510;50.558;7.258;2024-01-15T04:16:38;17.48;;;10.45;;
82000;SDS011;71510;50.558;7.258;2024-01-15T04:19:05;19.02;;;10.00;;
82000;SDS011;71510;50.558;7.258;2024-01-15T04:21:32;18.70;;;9.98;;
82000;SDS011;71510;50.558;7.258;2024-01-15T04:24:00;19.02;;;10.48;;
82000;SDS011;71510;50.558;7.258;2024-01-15T04:26:27;21.27;;;10.43;;
82000;SDS011;71510;50.558;7.258;2024-01-15T04:28:54;16.95;;;9.53;;
82000;SDS011;71510;50.558;7.258;2024-01-15T04:31:23;17.65;;;9.00;;
82000;SDS011;71510;50.558;7.258;2024-01-15T04:33:50;14.60;;;9.65;;
82000;SDS011;71510;50.558;7.258;2024-01-15T04:36:18;21.00;;;10.58;;
82000;SDS011;71510;50.558;7.258;2024-01-15T04:38:45;17.32;;;10.65;;
82000;SDS011;71510;50.558;7.258;2024-01-15T04:41:13;17.95;;;10.55;;
82000;SDS011;71510;50.558;7.258;2024-01-15T04:43:40;18.60;;;9.83;;
82000;SDS011;71510;50.558;7.258;2024-01-15T04:46:08;19.98;;;10.48;;
82000;SDS011;71510;50.558;7.258;2024-01-15T04:48:36;17.80;;;9.70;;
82000;SDS011;71510;50.558;7.258;2024-01-15T04:51:04;20.90;;;9.48;;
82000;SDS011;71510;50.558;7.258;2024-01-15T04:53:32;14.78;;;9.28;;
82000;SDS011;71510;50.558;7.258;2024-01-15T04:56:00;15.98;;;8.70;;
82000;SDS011;71510;50.558;7.258;2024-01-15T04:58:27;16.62;;;8.80;;
82000;SDS011;71510;50.558;7.258;2024-01-15T05:00:54;14.60;;;8.03;;
82000;SDS011;71510;50.558;7.258;2024-01-15T05:03:22;15.53;;;9.28;;
82000;SDS011;71510;50.558;7.258;2024-01-15T05:05:49;14.95;;;9.28;;
82000;SDS011;71510;50.558;7.258;2024-01-15T05:08:16;18.52;;;9.55;;
82000;SDS011;71510;50.558;7.258;2024-01-15T05:10:43;15.05;;;9.08;;
82000;SDS011;71510;50.558;7.258;2024-01-15T05:13:11;16.52;;;9.23;;
82000;SDS011;71510;50.558;7.258;2024-01-15T05:15:38;15.55;;;9.20;;
82000;SDS011;71510;50.558;7.258;2024-01-15T05:18:06;18.10;;;9.58;;
82000;SDS011;71510;50.558;7.258;2024-01-15T05:20:33;16.62;;;9.18;;
82000;SDS011;71510;50.558;7.258;2024-01-15T05:23:00;19.05;;;9.90;;
82000;SDS011;71510;50.558;7.258;2024-01-15T05:25:28;14.75;;;8.90;;
82000;SDS011;71510;50.558;7.258;2024-01-15T05:27:55;21.30;;;9.88;;
82000;SDS011;71510;50.558;7.258;2024-01-15T05:30:22;18.73;;;10.20;;
82000;SDS011;71510;50.558;7.258;2024-01-15T05:32:49;16.55;;;9.85;;
82000;SDS011;71510;50.558;7.258;2024-01-15T05:35:17;19.10;;;10.10;;
82000;SDS011;71510;50.558;7.258;2024-01-15T05:37:45;25.30;;;10.70;;
82000;SDS011;71510;50.558;7.258;2024-01-15T05:40:12;20.32;;;10.78;;
82000;SDS011;71510;50.558;7.258;2024-01-15T05:42:40;18.30;;;9.55;;
82000;SDS011;71510;50.558;7.258;2024-01-15T05:45:07;17.45;;;9.95;;
82000;SDS011;71510;50.558;7.258;2024-01-15T05:47:35;21.97;;;10.32;;
82000;SDS011;71510;50.558;7.258;2024-01-15T05:50:02;17.27;;;10.23;;
82000;SDS011;71510;50.558;7.258;2024-01-15T05:52:29;21.05;;;10.28;;
82000;SDS011;71510;50.558;7.258;2024-01-15T05:54:57;17.27;;;9.50;;
82000;SDS011;71510;50.558;7.258;2024-01-15T05:57:24;19.32;;;10.32;;
82000;SDS011;71510;50.558;7.258;2024-01-15T05:59:51;23.20;;;11.18;;
82000;SDS011;71510;50.558;7.258;2024-01-15T06:02:19;20.25;;;10.63;;
82000;SDS011;71510;50.558;7.258;2024-01-15T06:04:46;21.82;;;11.45;;
82000;SDS011;71510;50.558;7.258;2024-01-15T06:07:13;28.35;;;11.88;;
82000;SDS011;71510;50.558;7.258;2024-01-15T06:09:40;24.30;;;12.90;;
82000;SDS011;71510;50.558;7.258;2024-01-15T06:12:08;21.90;;;11.60;;
82000;SDS011;71510;50.558;7.258;2024-01-15T06:14:35;27.42;;;13.03;;
82000;SDS011;71510;50.558;7.258;2024-01-15T06:17:02;20.92;;;11.97;;
82000;SDS011;71510;50.558;7.258;2024-01-15T06:19:30;26.57;;;12.82;;
82000;SDS011;71510;50.558;7.258;2024-01-15T06:21:57;25.90;;;12.65;;
82000;SDS011;71510;50.558;7.258;2024-01-15T06:24:24;23.85;;;12.10;;
82000;SDS011;71510;50.558;7.258;2024-01-15T06:26:52;27.35;;;13.10;;
82000;SDS011;71510;50.558;7.258;2024-01-15T06:29:19;27.52;;;13.03;;
82000;SDS011;71510;50.558;7.258;2024-01-15T06:31:46;25.25;;;13.18;;
82000;SDS011;71510;50.558;7.258;2024-01-15T06:34:14;26.10;;;13.78;;
82000;SDS011;71510;50.558;7.258;2024-01-15T06:36:42;24.18;;;12.73;;
82000;SDS011;71510;50.558;7.258;2024-01-15T06:39:09;25.68;;;13.68;;
82000;SDS011;71510;50.558;7.258;2024-01-15T06:41:37;25.82;;;14.00;;
82000;SDS011;71510;50.558;7.258;2024-01-15T06:44:06;26.48;;;14.20;;
82000;SDS011;71510;50.558;7.258;2024-01-15T06:46:34;25.35;;;12.95;;
82000;SDS011;71510;50.558;7.258;2024-01-15T06:49:02;27.30;;;13.90;;
82000;SDS011;71510;50.558;7.258;2024-01-15T06:51:29;38.90;;;14.58;;
82000;SDS011;71510;50.558;7.258;2024-01-15T06:53:57;27.87;;;13.15;;
82000;SDS011;71510;50.558;7.258;2024-01-15T06:56:24;30.12;;;13.53;;
82000;SDS011;71510;50.558;7.258;2024-01-15T06:58:51;33.55;;;13.62;;
82000;SDS011;71510;50.558;7.258;2024-01-15T07:01:18;31.42;;;14.28;;
82000;SDS011;71510;50.558;7.258;2024-01-15T07:03:46;35.78;;;15.20;;
82000;SDS011;71510;50.558;7.258;2024-01-15T07:06:13;25.40;;;13.50;;
82000;SDS011;71510;50.558;7.258;2024-01-15T07:08:41;33.10;;;14.50;;
82000;SDS011;71510;50.558;7.258;2024-01-15T07:11:08;34.35;;;14.50;;
82000;SDS011;71510;50.558;7.258;2024-01-15T07:13:38;28.38;;;14.07;;
82000;SDS011;71510;50.558;7.258;2024-01-15T07:16:05;28.75;;;14.83;;
82000;SDS011;71510;50.558;7.258;2024-01-15T07:18:33;32.70;;;15.58;;
82000;SDS011;71510;50.558;7.258;2024-01-15T07:21:00;29.55;;;14.73;;
82000;SDS011;71510;50.558;7.258;2024-01-15T07:23:29;28.50;;;14.30;;
82000;SDS011;71510;50.558;7.258;2024-01-15T07:25:57;28.38;;;14.40;;
82000;SDS011;71510;50.558;7.258;2024-01-15T07:28:25;28.92;;;15.10;;
82000;SDS011;71510;50.558;7.258;2024-01-15T07:30:52;38.28;;;16.10;;
82000;SDS011;71510;50.558;7.258;2024-01-15T07:33:19;37.88;;;15.20;;
82000;SDS011;71510;50.558;7.258;2024-01-15T07:35:47;32.65;;;16.07;;
82000;SDS011;71510;50.558;7.258;2024-01-15T07:41:04;30.68;;;15.48;;
82000;SDS011;71510;50.558;7.258;2024-01-15T07:43:31;30.40;;;15.70;;
82000;SDS011;71510;50.558;7.258;2024-01-15T07:45:58;32.60;;;16.85;;
82000;SDS011;71510;50.558;7.258;2024-01-15T07:48:27;37.42;;;17.30;;
82000;SDS011;71510;50.558;7.258;2024-01-15T07:50:54;34.25;;;15.63;;
82000;SDS011;71510;50.558;7.258;2024-01-15T07:53:21;31.07;;;16.25;;
82000;SDS011;71510;50.558;7.258;2024-01-15T07:55:49;32.13;;;17.20;;
82000;SDS011;71510;50.558;7.258;2024-01-15T07:58:16;37.80;;;16.57;;
82000;SDS011;71510;50.558;7.258;2024-01-15T08:00:43;30.27;;;14.90;;
82000;SDS011;71510;50.558;7.258;2024-01-15T08:03:11;26.10;;;13.78;;
82000;SDS011;71510;50.558;7.258;2024-01-15T08:05:39;34.13;;;16.32;;
82000;SDS011;71510;50.558;7.258;2024-01-15T08:08:06;31.57;;;15.53;;
82000;SDS011;71510;50.558;7.258;2024-01-15T08:10:33;31.37;;;15.78;;
82000;SDS011;71510;50.558;7.258;2024-01-15T08:13:01;29.25;;;14.38;;
82000;SDS011;71510;50.558;7.258;2024-01-15T08:15:28;26.65;;;14.20;;
82000;SDS011;71510;50.558;7.258;2024-01-15T08:17:55;26.45;;;14.33;;
82000;SDS011;71510;50.558;7.258;2024-01-15T08:20:22;24.92;;;13.32;;
82000;SDS011;71510;50.558;7.258;2024-01-15T08:22:50;26.02;;;13.75;;
82000;SDS011;71510;50.558;7.258;2024-01-15T08:25:17;32.42;;;14.73;;
82000;SDS011;71510;50.558;7.258;2024-01-15T08:27:45;26.90;;;13.78;;
82000;SDS011;71510;50.558;7.258;2024-01-15T08:30:12;28.67;;;14.03;;
82000;SDS011;71510;50.558;7.258;2024-01-15T08:32:39;26.57;;;13.58;;
82000;SDS011;71510;50.558;7.258;2024-01-15T08:35:10;29.55;;;15.20;;
82000;SDS011;71510;50.558;7.258;2024-01-15T08:37:38;29.65;;;14.80;;
82000;SDS011;71510;50.558;7.258;2024-01-15T08:40:05;25.57;;;14.43;;
82000;SDS011;71510;50.558;7.258;2024-01-15T08:42:32;29.82;;;14.25;;
82000;SDS011;71510;50.558;7.258;2024-01-15T08:45:00;29.60;;;15.65;;
82000;SDS011;71510;50.558;7.258;2024-01-15T08:47:28;31.40;;;16.27;;
82000;SDS011;71510;50.558;7.258;2024-01-15T08:49:55;26.87;;;15.60;;
82000;SDS011;71510;50.558;7.258;2024-01-15T08:52:22;25.80;;;12.15;;
82000;SDS011;71510;50.558;7.258;2024-01-15T08:54:49;18.77;;;10.35;;
82000;SDS011;71510;50.558;7.258;2024-01-15T08:57:17;22.27;;;13.38;;
82000;SDS011;71510;50.558;7.258;2024-01-15T08:59:44;28.15;;;14.70;;
82000;SDS011;71510;50.558;7.258;2024-01-15T09:02:11;24.70;;;13.40;;
82000;SDS011;71510;50.558;7.258;2024-01-15T09:04:39;20.08;;;12.00;;
82000;SDS011;71510;50.558;7.258;2024-01-15T09:07:07;21.62;;;11.53;;
82000;SDS011;71510;50.558;7.258;2024-01-15T09:09:34;19.30;;;11.68;;
82000;SDS011;71510;50.558;7.258;2024-01-15T09:12:02;19.10;;;10.13;;
82000;SDS011;71510;50.558;7.258;2024-01-15T09:14:29;19.90;;;10.55;;
82000;SDS011;71510;50.558;7.258;2024-01-15T09:16:56;19.52;;;10.53;;
82000;SDS011;71510;50.558;7.258;2024-01-15T09:19:24;18.35;;;10.45;;
82000;SDS011;71510;50.558;7.258;2024-01-15T09:21:51;17.45;;;10.08;;
82000;SDS011;71510;50.558;7.258;2024-01-15T09:24:18;19.65;;;11.22;;
82000;SDS011;71510;50.558;7.258;2024-01-15T09:26:46;16.62;;;10.35;;
82000;SDS011;71510;50.558;7.258;2024-01-15T09:29:13;15.28;;;9.28;;
82000;SDS011;71510;50.558;7.258;2024-01-15T09:31:42;16.85;;;9.80;;
82000;SDS011;71510;50.558;7.258;2024-01-15T09:34:09;15.95;;;9.90;;
82000;SDS011;71510;50.558;7.258;2024-01-15T09:36:40;17.37;;;9.48;;
82000;SDS011;71510;50.558;7.258;2024-01-15T09:41:35;17.02;;;8.80;;
82000;SDS011;71510;50.558;7.258;2024-01-15T09:44:03;14.98;;;9.10;;
82000;SDS011;71510;50.558;7.258;2024-01-15T09:46:33;16.10;;;9.03;;
82000;SDS011;71510;50.558;7.258;2024-01-15T09:49:01;16.57;;;8.70;;
82000;SDS011;71510;50.558;7.258;2024-01-15T09:51:30;13.48;;;8.25;;
82000;SDS011;71510;50.558;7.258;2024-01-15T09:53:57;12.53;;;7.58;;
82000;SDS011;71510;50.558;7.258;2024-01-15T09:56:25;11.60;;;6.90;;
82000;SDS011;71510;50.558;7.258;2024-01-15T09:58:52;13.85;;;8.00;;
82000;SDS011;71510;50.558;7.258;2024-01-15T10:01:22;16.70;;;6.83;;
82000;SDS011;71510;50.558;7.258;2024-01-15T10:03:50;10.87;;;5.87;;
82000;SDS011;71510;50.558;7.258;2024-01-15T10:06:17;10.68;;;6.55;;
82000;SDS011;71510;50.558;7.258;2024-01-15T10:08:50;9.25;;;5.72;;
82000;SDS011;71510;50.558;7.258;2024-01-15T10:11:13;23.73;;;6.62;;
82000;SDS011;71510;50.558;7.258;2024-01-15T10:13:40;12.70;;;5.75;;
82000;SDS011;71510;50.558;7.258;2024-01-15T10:16:08;11.48;;;6.78;;
82000;SDS011;71510;50.558;7.258;2024-01-15T10:18:36;12.95;;;6.20;;
82000;SDS011;71510;50.558;7.258;2024-01-15T10:21:03;10.82;;;7.45;;
82000;SDS011;71510;50.558;7.258;2024-01-15T10:23:31;14.00;;;6.62;;
82000;SDS011;71510;50.558;7.258;2024-01-15T10:25:59;10.65;;;6.50;;
82000;SDS011;71510;50.558;7.258;2024-01-15T10:28:27;17.02;;;7.00;;
82000;SDS011;71510;50.558;7.258;2024-01-15T10:30:56;14.68;;;6.83;;
82000;SDS011;71510;50.558;7.258;2024-01-15T10:33:25;16.52;;;7.00;;
82000;SDS011;71510;50.558;7.258;2024-01-15T10:35:56;10.98;;;6.90;;
82000;SDS011;71510;50.558;7.258;2024-01-15T10:38:23;13.03;;;5.55;;
82000;SDS011;71510;50.558;7.258;2024-01-15T10:40:51;10.48;;;6.17;;
82000;SDS011;71510;50.558;7.258;2024-01-15T10:43:19;13.32;;;6.78;;
82000;SDS011;71510;50.558;7.258;2024-01-15T10:45:46;8.98;;;5.45;;
82000;SDS011;71510;50.558;7.258;2024-01-15T10:48:15;10.93;;;6.47;;
82000;SDS011;71510;50.558;7.258;2024-01-15T10:50:44;9.40;;;5.30;;
82000;SDS011;71510;50.558;7.258;2024-01-15T10:53:32;9.25;;;5.10;;
82000;SDS011;71510;50.558;7.258;2024-01-15T10:55:59;8.75;;;5.50;;
82000;SDS011;71510;50.558;7.258;2024-01-15T10:58:27;14.63;;;5.72;;
82000;SDS011;71510;50.558;7.258;2024-01-15T11:00:56;14.35;;;6.22;;
82000;SDS011;71510;50.558;7.258;2024-01-15T11:03:24;7.12;;;5.30;;
82000;SDS011;71510;50.558;7.258;2024-01-15T11:05:51;10.23;;;5.47;;
82000;SDS011;71510;50.558;7.258;2024-01-15T11:08:20;10.65;;;4.87;;
82000;SDS011;71510;50.558;7.258;2024-01-15T11:10:48;5.72;;;4.58;;
82000;SDS011;71510;50.558;7.258;2024-01-15T11:16:03;7.15;;;4.62;;
82000;SDS011;71510;50.558;7.258;2024-01-15T11:18:31;12.55;;;5.05;;
82000;SDS011;71510;50.558;7.258;2024-01-15T11:23:46;7.75;;;5.33;;
82000;SDS011;71510;50.558;7.258;2024-01-15T11:26:29;10.30;;;5.08;;
82000;SDS011;71510;50.558;7.258;2024-01-15T11:28:58;9.53;;;5.70;;
82000;SDS011;71510;50.558;7.258;2024-01-15T11:31:29;7.37;;;5.80;;
82000;SDS011;71510;50.558;7.258;2024-01-15T11:34:17;12.78;;;6.35;;
82000;SDS011;71510;50.558;7.258;2024-01-15T11:39:39;11.60;;;6.33;;
82000;SDS011;71510;50.558;7.258;2024-01-15T11:41:48;8.58;;;6.12;;
82000;SDS011;71510;50.558;7.258;2024-01-15T11:44:16;10.15;;;6.35;;
82000;SDS011;71510;50.558;7.258;2024-01-15T11:46:44;11.57;;;6.53;;
82000;SDS011;71510;50.558;7.258;2024-01-15T11:49:12;7.12;;;5.75;;
82000;SDS011;71510;50.558;7.258;2024-01-15T11:51:41;9.73;;;6.42;;
82000;SDS011;71510;50.558;7.258;2024-01-15T11:54:09;8.03;;;5.80;;
82000;SDS011;71510;50.558;7.258;2024-01-15T11:56:57;9.70;;;5.83;;
82000;SDS011;71510;50.558;7.258;2024-01-15T11:59:26;10.43;;;6.17;;
82000;SDS011;71510;50.558;7.258;2024-01-15T12:01:53;11.33;;;6.30;;
82000;SDS011;71510;50.558;7.258;2024-01-15T12:04:20;9.98;;;5.50;;
82000;SDS011;71510;50.558;7.258;2024-01-15T12:06:48;8.65;;;5.65;;
82000;SDS011;71510;50.558;7.258;2024-01-15T12:09:18;7.22;;;5.22;;
82000;SDS011;71510;50.558;7.258;2024-01-15T12:11:45;8.03;;;5.22;;
82000;SDS011;71510;50.558;7.258;2024-01-15T12:14:13;7.78;;;5.53;;
82000;SDS011;71510;50.558;7.258;2024-01-15T12:16:40;10.40;;;5.47;;
82000;SDS011;71510;50.558;7.258;2024-01-15T12:19:07;10.18;;;5.17;;
82000;SDS011;71510;50.558;7.258;2024-01-15T12:21:35;8.30;;;4.70;;
82000;SDS011;71510;50.558;7.258;2024-01-15T12:24:02;11.20;;;5.70;;
82000;SDS011;71510;50.558;7.258;2024-01-15T12:26:29;6.37;;;4.70;;
82000;SDS011;71510;50.558;7.258;2024-01-15T12:28:57;5.72;;;4.03;;
82000;SDS011;71510;50.558;7.258;2024-01-15T12:31:24;6.92;;;4.62;;
82000;SDS011;71510;50.558;7.258;2024-01-15T12:33:51;6.78;;;5.25;;
82000;SDS011;71510;50.558;7.258;2024-01-15T12:36:21;6.12;;;4.22;;
82000;SDS011;71510;50.558;7.258;2024-01-15T12:38:48;10.60;;;4.20;;
82000;SDS011;71510;50.558;7.258;2024-01-15T12:41:16;7.85;;;4.80;;
82000;SDS011;71510;50.558;7.258;2024-01-15T12:43:43;7.97;;;4.75;;
82000;SDS011;71510;50.558;7.258;2024-01-15T12:46:10;8.50;;;4.00;;
82000;SDS011;71510;50.558;7.258;2024-01-15T12:48:38;10.05;;;4.17;;
82000;SDS011;71510;50.558;7.258;2024-01-15T12:51:06;12.07;;;4.95;;
82000;SDS011;71510;50.558;7.258;2024-01-15T12:53:33;8.38;;;4.17;;
82000;SDS011;71510;50.558;7.258;2024-01-15T12:56:01;10.98;;;5.17;;
82000;SDS011;71510;50.558;7.258;2024-01-15T12:58:28;20.05;;;5.00;;
82000;SDS011;71510;50.558;7.258;2024-01-15T13:00:55;8.10;;;4.40;;
82000;SDS011;71510;50.558;7.258;2024-01-15T13:03:23;7.15;;;4.28;;
82000;SDS011;71510;50.558;7.258;2024-01-15T13:05:51;7.53;;;4.80;;
82000;SDS011;71510;50.558;7.258;2024-01-15T13:08:19;11.18;;;3.67;;
82000;SDS011;71510;50.558;7.258;2024-01-15T13:10:46;12.18;;;4.10;;
82000;SDS011;71510;50.558;7.258;2024-01-15T13:13:13;8.45;;;3.27;;
82000;SDS011;71510;50.558;7.258;2024-01-15T13:15:41;10.30;;;3.52;;
82000;SDS011;71510;50.558;7.258;2024-01-15T13:18:08;12.78;;;3.70;;
82000;SDS011;71510;50.558;7.258;2024-01-15T13:20:35;10.55;;;3.58;;
82000;SDS011;71510;50.558;7.258;2024-01-15T13:23:03;11.95;;;3.85;;
82000;SDS011;71510;50.558;7.258;2024-01-15T13:25:30;7.22;;;2.98;;
82000;SDS011;71510;50.558;7.258;2024-01-15T13:27:58;8.60;;;2.62;;
82000;SDS011;71510;50.558;7.258;2024-01-15T13:30:25;6.30;;;2.90;;
82000;SDS011;71510;50.558;7.258;2024-01-15T13:32:53;9.43;;;3.25;;
82000;SDS011;71510;50.558;7.258;2024-01-15T13:35:22;12.40;;;3.42;;
82000;SDS011;71510;50.558;7.258;2024-01-15T13:37:49;5.65;;;2.45;;
82000;SDS011;71510;50.558;7.258;2024-01-15T13:40:17;12.85;;;3.10;;
82000;SDS011;71510;50.558;7.258;2024-01-15T13:42:46;12.28;;;2.87;;
82000;SDS011;71510;50.558;7.258;2024-01-15T13:45:13;5.58;;;2.60;;
82000;SDS011;71510;50.558;7.258;2024-01-15T13:47:44;5.40;;;3.17;;
82000;SDS011;71510;50.558;7.258;2024-01-15T13:50:11;8.35;;;2.70;;
82000;SDS011;71510;50.558;7.258;2024-01-15T13:55:25;8.65;;;2.70;;
82000;SDS011;71510;50.558;7.258;2024-01-15T13:57:52;7.30;;;3.00;;
82000;SDS011;71510;50.558;7.258;2024-01-15T14:00:20;7.28;;;2.77;;
82000;SDS011;71510;50.558;7.258;2024-01-15T14:02:47;12.73;;;3.02;;
82000;SDS011;71510;50.558;7.258;2024-01-15T14:05:14;12.35;;;2.87;;
82000;SDS011;71510;50.558;7.258;2024-01-15T14:07:42;8.05;;;3.35;;
82000;SDS011;71510;50.558;7.258;2024-01-15T14:10:10;6.67;;;2.92;;
82000;SDS011;71510;50.558;7.258;2024-01-15T14:12:37;10.80;;;3.00;;
82000;SDS011;71510;50.558;7.258;2024-01-15T14:15:06;9.90;;;3.00;;
82000;SDS011;71510;50.558;7.258;2024-01-15T14:17:33;6.33;;;3.33;;
82000;SDS011;71510;50.558;7.258;2024-01-15T14:20:01;6.97;;;3.22;;
82000;SDS011;71510;50.558;7.258;2024-01-15T14:22:28;13.32;;;2.90;;
82000;SDS011;71510;50.558;7.258;2024-01-15T14:24:56;8.55;;;3.40;;
82000;SDS011;71510;50.558;7.258;2024-01-15T14:30:10;10.93;;;2.87;;
82000;SDS011;71510;50.558;7.258;2024-01-15T14:32:39;11.05;;;3.80;;
82000;SDS011;71510;50.558;7.258;2024-01-15T14:35:07;9.03;;;3.15;;
82000;SDS011;71510;50.558;7.258;2024-01-15T14:37:36;12.65;;;3.15;;
82000;SDS011;71510;50.558;7.258;2024-01-15T14:40:04;10.65;;;3.85;;
82000;SDS011;71510;50.558;7.258;2024-01-15T14:42:34;5.47;;;3.52;;
82000;SDS011;71510;50.558;7.258;2024-01-15T14:45:01;8.55;;;3.05;;
82000;SDS011;71510;50.558;7.258;2024-01-15T14:47:30;11.08;;;3.20;;
82000;SDS011;71510;50.558;7.258;2024-01-15T14:49:58;6.92;;;2.55;;
82000;SDS011;71510;50.558;7.258;2024-01-15T14:52:25;7.25;;;2.37;;